createdAt,value
2017-09-15T00:00:17.375Z,933.84
2017-09-15T00:00:45.485Z,933.8
2017-09-15T00:01:13.309Z,933.8
2017-09-15T00:01:41.279Z,933.84
2017-09-15T00:02:09.171Z,933.81
2017-09-15T00:02:37.069Z,933.81
2017-09-15T00:03:05.178Z,933.82
2017-09-15T00:03:33.188Z,933.83
2017-09-15T00:04:01.124Z,933.87
2017-09-15T00:04:29.225Z,933.83
2017-09-15T00:04:57.249Z,933.83
2017-09-15T00:05:25.488Z,933.84
2017-09-15T00:05:53.400Z,933.86
2017-09-15T00:06:21.320Z,933.82
2017-09-15T00:06:49.236Z,933.85
2017-09-15T00:07:17.359Z,933.85
2017-09-15T00:07:45.487Z,933.87
2017-09-15T00:08:13.385Z,933.85
2017-09-15T00:08:41.281Z,933.87
2017-09-15T00:09:09.289Z,933.85
2017-09-15T00:09:37.355Z,933.87
2017-09-15T00:10:05.456Z,933.88
2017-09-15T00:10:33.553Z,933.87
2017-09-15T00:11:01.662Z,933.89
2017-09-15T00:11:29.751Z,933.89
2017-09-15T00:11:57.752Z,933.92
2017-09-15T00:12:25.854Z,933.93
2017-09-15T00:12:53.864Z,933.92
2017-09-15T00:13:21.777Z,933.95
2017-09-15T00:13:49.698Z,933.96
2017-09-15T00:14:17.597Z,933.91
2017-09-15T00:14:45.474Z,933.97
2017-09-15T00:15:13.596Z,933.97
2017-09-15T00:15:41.713Z,933.96
2017-09-15T00:16:09.497Z,934.01
2017-09-15T00:16:37.602Z,933.99
2017-09-15T00:17:05.596Z,934
2017-09-15T00:17:33.588Z,934.02
2017-09-15T00:18:01.577Z,934.03
2017-09-15T00:18:29.496Z,934
2017-09-15T00:18:57.575Z,934
2017-09-15T00:19:25.487Z,934.03
2017-09-15T00:19:53.459Z,934.06
2017-09-15T00:20:21.452Z,934.04
2017-09-15T00:20:49.543Z,934.08
2017-09-15T00:21:17.558Z,934.06
2017-09-15T00:21:45.531Z,934.04
2017-09-15T00:22:13.355Z,934.04
2017-09-15T00:22:41.150Z,934.06
2017-09-15T00:23:09.174Z,934.09
2017-09-15T00:23:37.165Z,934.1
2017-09-15T00:24:05.156Z,934.08
2017-09-15T00:24:33.135Z,934.09
2017-09-15T00:25:01.255Z,934.1
2017-09-15T00:25:29.149Z,934.11
2017-09-15T00:25:57.046Z,934.12
2017-09-15T00:26:25.012Z,934.15
2017-09-15T00:26:53.014Z,934.1
2017-09-15T00:27:21.038Z,934.14
2017-09-15T00:27:49.019Z,934.14
2017-09-15T00:28:17.136Z,934.16
2017-09-15T00:28:45.061Z,934.15
2017-09-15T00:29:13.173Z,934.14
2017-09-15T00:29:41.046Z,934.14
2017-09-15T00:30:09.203Z,934.14
2017-09-15T00:30:37.322Z,934.15
2017-09-15T00:31:05.312Z,934.16
2017-09-15T00:31:33.407Z,934.15
2017-09-15T00:32:01.183Z,934.18
2017-09-15T00:32:29.178Z,934.14
2017-09-15T00:32:57.156Z,934.16
2017-09-15T00:33:25.191Z,934.16
2017-09-15T00:33:53.191Z,934.16
2017-09-15T00:34:21.234Z,934.12
2017-09-15T00:34:49.135Z,934.14
2017-09-15T00:35:17.126Z,934.13
2017-09-15T00:35:45.262Z,934.15
2017-09-15T00:36:13.394Z,934.14
2017-09-15T00:36:41.487Z,934.16
2017-09-15T00:37:09.383Z,934.14
2017-09-15T00:37:37.488Z,934.14
2017-09-15T00:38:05.490Z,934.16
2017-09-15T00:38:33.497Z,934.14
2017-09-15T00:39:01.298Z,934.14
2017-09-15T00:39:29.374Z,934.18
2017-09-15T00:39:57.298Z,934.15
2017-09-15T00:40:25.401Z,934.17
2017-09-15T00:40:53.577Z,934.14
2017-09-15T00:41:21.483Z,934.17
2017-09-15T00:41:49.531Z,934.18
2017-09-15T00:42:17.512Z,934.16
2017-09-15T00:42:45.640Z,934.18
2017-09-15T00:43:13.737Z,934.21
2017-09-15T00:43:41.643Z,934.18
2017-09-15T00:44:09.648Z,934.18
2017-09-15T00:44:37.748Z,934.19
2017-09-15T00:45:05.826Z,934.18
2017-09-15T00:45:33.957Z,934.21
2017-09-15T00:46:02.059Z,934.17
2017-09-15T00:46:30.054Z,934.2
2017-09-15T00:46:58.058Z,934.17
2017-09-15T00:47:26.021Z,934.17
2017-09-15T00:47:54.020Z,934.17
2017-09-15T00:48:22.129Z,934.19
2017-09-15T00:48:50.146Z,934.2
2017-09-15T00:49:18.043Z,934.21
2017-09-15T00:49:46.046Z,934.19
2017-09-15T00:50:14.081Z,934.2
2017-09-15T00:50:41.882Z,934.22
2017-09-15T00:51:10.062Z,934.18
2017-09-15T00:51:38.077Z,934.24
2017-09-15T00:52:06.182Z,934.21
2017-09-15T00:52:34.277Z,934.21
2017-09-15T00:53:02.378Z,934.22
2017-09-15T00:53:30.364Z,934.24
2017-09-15T00:53:58.433Z,934.22
2017-09-15T00:54:26.445Z,934.22
2017-09-15T00:54:54.542Z,934.22
2017-09-15T00:55:22.549Z,934.23
2017-09-15T00:55:50.778Z,934.23
2017-09-15T00:56:18.667Z,934.22
2017-09-15T00:56:46.567Z,934.23
2017-09-15T00:57:14.578Z,934.22
2017-09-15T00:57:42.680Z,934.19
2017-09-15T00:58:10.594Z,934.24
2017-09-15T00:58:38.706Z,934.23
2017-09-15T00:59:06.832Z,934.24
2017-09-15T00:59:34.943Z,934.26
2017-09-15T01:00:02.973Z,934.24
2017-09-15T01:00:30.972Z,934.21
2017-09-15T01:00:58.988Z,934.25
2017-09-15T01:01:27.066Z,934.25
2017-09-15T01:01:55.144Z,934.27
2017-09-15T01:02:23.256Z,934.24
2017-09-15T01:02:51.361Z,934.27
2017-09-15T01:03:19.460Z,934.27
2017-09-15T01:03:47.560Z,934.3
2017-09-15T01:04:15.472Z,934.29
2017-09-15T01:04:43.370Z,934.31
2017-09-15T01:05:11.279Z,934.3
2017-09-15T01:05:39.265Z,934.29
2017-09-15T01:06:07.295Z,934.28
2017-09-15T01:06:35.095Z,934.3
2017-09-15T01:07:03.001Z,934.3
2017-09-15T01:07:31.038Z,934.29
2017-09-15T01:07:59.054Z,934.28
2017-09-15T01:08:27.071Z,934.27
2017-09-15T01:08:55.153Z,934.3
2017-09-15T01:09:23.290Z,934.26
2017-09-15T01:09:51.179Z,934.27
2017-09-15T01:10:19.178Z,934.28
2017-09-15T01:10:46.993Z,934.3
2017-09-15T01:11:14.890Z,934.26
2017-09-15T01:11:42.819Z,934.27
2017-09-15T01:12:10.948Z,934.26
2017-09-15T01:12:38.955Z,934.24
2017-09-15T01:13:06.924Z,934.24
2017-09-15T01:13:35.006Z,934.25
2017-09-15T01:14:03.033Z,934.25
2017-09-15T01:14:30.936Z,934.25
2017-09-15T01:14:58.925Z,934.25
2017-09-15T01:15:27.045Z,934.23
2017-09-15T01:15:55.083Z,934.24
2017-09-15T01:16:23.321Z,934.27
2017-09-15T01:16:51.473Z,934.3
2017-09-15T01:17:19.493Z,934.27
2017-09-15T01:17:47.563Z,934.3
2017-09-15T01:18:15.560Z,934.31
2017-09-15T01:18:43.465Z,934.28
2017-09-15T01:19:11.484Z,934.29
2017-09-15T01:19:39.511Z,934.24
2017-09-15T01:20:07.309Z,934.28
2017-09-15T01:20:35.236Z,934.28
2017-09-15T01:21:03.251Z,934.24
2017-09-15T01:21:31.344Z,934.25
2017-09-15T01:21:59.267Z,934.23
2017-09-15T01:22:27.303Z,934.27
2017-09-15T01:22:55.392Z,934.24
2017-09-15T01:23:23.518Z,934.25
2017-09-15T01:23:51.491Z,934.25
2017-09-15T01:24:19.617Z,934.24
2017-09-15T01:24:47.752Z,934.24
2017-09-15T01:25:15.857Z,934.28
2017-09-15T01:25:43.777Z,934.28
2017-09-15T01:26:12.042Z,934.25
2017-09-15T01:26:40.056Z,934.27
2017-09-15T01:27:08.143Z,934.24
2017-09-15T01:27:35.832Z,934.23
2017-09-15T01:28:03.922Z,934.24
2017-09-15T01:28:32.013Z,934.24
2017-09-15T01:29:00.022Z,934.24
2017-09-15T01:29:28.020Z,934.23
2017-09-15T01:29:55.989Z,934.26
2017-09-15T01:30:23.887Z,934.27
2017-09-15T01:30:51.995Z,934.25
2017-09-15T01:31:20.002Z,934.25
2017-09-15T01:31:47.869Z,934.25
2017-09-15T01:32:15.985Z,934.28
2017-09-15T01:32:44.079Z,934.3
2017-09-15T01:33:12.066Z,934.29
2017-09-15T01:33:40.065Z,934.29
2017-09-15T01:34:08.049Z,934.29
2017-09-15T01:34:36.171Z,934.28
2017-09-15T01:35:04.176Z,934.33
2017-09-15T01:35:32.300Z,934.3
2017-09-15T01:36:00.265Z,934.28
2017-09-15T01:36:28.504Z,934.29
2017-09-15T01:36:56.308Z,934.28
2017-09-15T01:37:24.213Z,934.29
2017-09-15T01:37:52.128Z,934.3
2017-09-15T01:38:20.203Z,934.3
2017-09-15T01:38:48.232Z,934.31
2017-09-15T01:39:16.203Z,934.31
2017-09-15T01:39:43.986Z,934.3
2017-09-15T01:40:11.874Z,934.3
2017-09-15T01:40:39.653Z,934.27
2017-09-15T01:41:07.724Z,934.29
2017-09-15T01:41:35.836Z,934.3
2017-09-15T01:42:03.743Z,934.31
2017-09-15T01:42:31.565Z,934.27
2017-09-15T01:42:59.563Z,934.31
2017-09-15T01:43:27.455Z,934.28
2017-09-15T01:43:55.580Z,934.29
2017-09-15T01:44:23.598Z,934.3
2017-09-15T01:44:51.591Z,934.28
2017-09-15T01:45:19.485Z,934.31
2017-09-15T01:45:47.357Z,934.29
2017-09-15T01:46:15.356Z,934.28
2017-09-15T01:46:43.466Z,934.28
2017-09-15T01:47:11.604Z,934.29
2017-09-15T01:47:39.707Z,934.28
2017-09-15T01:48:07.781Z,934.3
2017-09-15T01:48:35.675Z,934.27
2017-09-15T01:49:03.576Z,934.3
2017-09-15T01:49:31.363Z,934.3
2017-09-15T01:49:59.341Z,934.33
2017-09-15T01:50:27.276Z,934.29
2017-09-15T01:50:55.082Z,934.32
2017-09-15T01:51:23.197Z,934.3
2017-09-15T01:51:51.336Z,934.33
2017-09-15T01:52:19.327Z,934.32
2017-09-15T01:52:47.194Z,934.34
2017-09-15T01:53:15.193Z,934.34
2017-09-15T01:53:43.224Z,934.31
2017-09-15T01:54:11.224Z,934.35
2017-09-15T01:54:39.223Z,934.31
2017-09-15T01:55:07.313Z,934.33
2017-09-15T01:55:35.233Z,934.32
2017-09-15T01:56:03.349Z,934.35
2017-09-15T01:56:31.262Z,934.35
2017-09-15T01:56:59.383Z,934.34
2017-09-15T01:57:27.532Z,934.35
2017-09-15T01:57:55.514Z,934.33
2017-09-15T01:58:23.624Z,934.34
2017-09-15T01:58:51.701Z,934.38
2017-09-15T01:59:19.700Z,934.32
2017-09-15T01:59:47.701Z,934.34
2017-09-15T02:00:15.474Z,934.34
2017-09-15T02:00:43.557Z,934.37
2017-09-15T02:01:11.557Z,934.35
2017-09-15T02:01:39.681Z,934.31
2017-09-15T02:02:07.471Z,934.35
2017-09-15T02:02:35.575Z,934.36
2017-09-15T02:03:03.708Z,934.36
2017-09-15T02:03:31.811Z,934.33
2017-09-15T02:03:59.699Z,934.36
2017-09-15T02:04:27.585Z,934.34
2017-09-15T02:04:55.524Z,934.38
2017-09-15T02:05:23.420Z,934.38
2017-09-15T02:05:51.410Z,934.4
2017-09-15T02:06:19.507Z,934.37
2017-09-15T02:06:47.621Z,934.35
2017-09-15T02:07:15.434Z,934.37
2017-09-15T02:07:43.379Z,934.35
2017-09-15T02:08:11.403Z,934.36
2017-09-15T02:08:39.521Z,934.41
2017-09-15T02:09:07.541Z,934.4
2017-09-15T02:09:35.462Z,934.39
2017-09-15T02:10:03.367Z,934.36
2017-09-15T02:10:31.456Z,934.34
2017-09-15T02:10:59.437Z,934.37
2017-09-15T02:11:27.539Z,934.34
2017-09-15T02:11:55.675Z,934.34
2017-09-15T02:12:23.651Z,934.36
2017-09-15T02:12:51.643Z,934.34
2017-09-15T02:13:19.735Z,934.34
2017-09-15T02:13:47.748Z,934.35
2017-09-15T02:14:15.794Z,934.34
2017-09-15T02:14:43.877Z,934.29
2017-09-15T02:15:11.869Z,934.33
2017-09-15T02:15:39.977Z,934.34
2017-09-15T02:16:08.111Z,934.33
2017-09-15T02:16:36.316Z,934.34
2017-09-15T02:17:04.445Z,934.33
2017-09-15T02:17:32.573Z,934.35
2017-09-15T02:18:00.702Z,934.33
2017-09-15T02:18:28.682Z,934.33
2017-09-15T02:18:56.670Z,934.33
2017-09-15T02:19:24.574Z,934.31
2017-09-15T02:19:52.464Z,934.33
2017-09-15T02:20:20.348Z,934.31
2017-09-15T02:20:48.324Z,934.32
2017-09-15T02:21:16.328Z,934.3
2017-09-15T02:21:44.564Z,934.33
2017-09-15T02:22:12.584Z,934.33
2017-09-15T02:22:40.592Z,934.37
2017-09-15T02:23:08.714Z,934.29
2017-09-15T02:23:36.720Z,934.36
2017-09-15T02:24:04.709Z,934.34
2017-09-15T02:24:32.696Z,934.36
2017-09-15T02:25:00.627Z,934.34
2017-09-15T02:25:28.652Z,934.36
2017-09-15T02:25:56.633Z,934.34
2017-09-15T02:26:24.628Z,934.36
2017-09-15T02:26:52.625Z,934.33
2017-09-15T02:27:20.516Z,934.35
2017-09-15T02:27:48.345Z,934.33
2017-09-15T02:28:16.253Z,934.31
2017-09-15T02:28:44.248Z,934.33
2017-09-15T02:29:12.249Z,934.34
2017-09-15T02:29:40.359Z,934.35
2017-09-15T02:30:08.269Z,934.37
2017-09-15T02:30:36.259Z,934.36
2017-09-15T02:31:04.384Z,934.35
2017-09-15T02:31:32.079Z,934.32
2017-09-15T02:32:00.079Z,934.32
2017-09-15T02:32:27.993Z,934.33
2017-09-15T02:32:56.002Z,934.33
2017-09-15T02:33:23.881Z,934.36
2017-09-15T02:33:51.682Z,934.37
2017-09-15T02:34:19.783Z,934.35
2017-09-15T02:34:47.791Z,934.38
2017-09-15T02:35:15.727Z,934.41
2017-09-15T02:35:43.843Z,934.39
2017-09-15T02:36:11.861Z,934.39
2017-09-15T02:36:39.967Z,934.4
2017-09-15T02:37:07.877Z,934.39
2017-09-15T02:37:35.865Z,934.38
2017-09-15T02:38:03.862Z,934.39
2017-09-15T02:38:31.887Z,934.38
2017-09-15T02:39:00.001Z,934.35
2017-09-15T02:39:28.112Z,934.34
2017-09-15T02:39:56.040Z,934.37
2017-09-15T02:40:23.953Z,934.33
2017-09-15T02:40:52.091Z,934.33
2017-09-15T02:41:19.983Z,934.34
2017-09-15T02:41:47.797Z,934.31
2017-09-15T02:42:15.785Z,934.35
2017-09-15T02:42:43.703Z,934.31
2017-09-15T02:43:11.815Z,934.34
2017-09-15T02:43:39.701Z,934.39
2017-09-15T02:44:07.750Z,934.37
2017-09-15T02:44:35.737Z,934.35
2017-09-15T02:45:03.733Z,934.34
2017-09-15T02:45:31.629Z,934.36
2017-09-15T02:45:59.727Z,934.35
2017-09-15T02:46:27.396Z,934.33
2017-09-15T02:46:55.497Z,934.35
2017-09-15T02:47:23.502Z,934.33
2017-09-15T02:47:51.583Z,934.38
2017-09-15T02:48:19.574Z,934.37
2017-09-15T02:48:47.444Z,934.39
2017-09-15T02:49:15.342Z,934.36
2017-09-15T02:49:43.339Z,934.34
2017-09-15T02:50:11.466Z,934.37
2017-09-15T02:50:39.566Z,934.34
2017-09-15T02:51:07.488Z,934.34
2017-09-15T02:51:35.484Z,934.36
2017-09-15T02:52:03.710Z,934.35
2017-09-15T02:52:31.615Z,934.33
2017-09-15T02:52:59.619Z,934.35
2017-09-15T02:53:27.573Z,934.33
2017-09-15T02:53:55.561Z,934.34
2017-09-15T02:54:23.547Z,934.33
2017-09-15T02:54:51.445Z,934.33
2017-09-15T02:55:19.468Z,934.36
2017-09-15T02:55:47.419Z,934.33
2017-09-15T02:56:15.508Z,934.33
2017-09-15T02:56:43.439Z,934.37
2017-09-15T02:57:11.540Z,934.3
2017-09-15T02:57:39.658Z,934.33
2017-09-15T02:58:07.748Z,934.32
2017-09-15T02:58:35.736Z,934.3
2017-09-15T02:59:03.828Z,934.33
2017-09-15T02:59:31.757Z,934.33
2017-09-15T02:59:59.658Z,934.32
2017-09-15T03:00:27.558Z,934.33
2017-09-15T03:00:55.569Z,934.33
2017-09-15T03:01:23.380Z,934.31
2017-09-15T03:01:51.490Z,934.32
2017-09-15T03:02:19.484Z,934.26
2017-09-15T03:02:47.466Z,934.27
2017-09-15T03:03:15.281Z,934.27
2017-09-15T03:03:43.379Z,934.26
2017-09-15T03:04:11.366Z,934.23
2017-09-15T03:04:39.477Z,934.24
2017-09-15T03:05:07.398Z,934.24
2017-09-15T03:05:35.386Z,934.24
2017-09-15T03:06:03.508Z,934.25
2017-09-15T03:06:31.391Z,934.23
2017-09-15T03:06:59.615Z,934.24
2017-09-15T03:07:27.705Z,934.23
2017-09-15T03:07:55.712Z,934.22
2017-09-15T03:08:23.597Z,934.21
2017-09-15T03:08:51.514Z,934.22
2017-09-15T03:09:19.416Z,934.2
2017-09-15T03:09:47.522Z,934.26
2017-09-15T03:10:15.513Z,934.2
2017-09-15T03:10:43.423Z,934.23
2017-09-15T03:11:11.497Z,934.23
2017-09-15T03:11:39.516Z,934.22
2017-09-15T03:12:07.529Z,934.19
2017-09-15T03:12:35.410Z,934.24
2017-09-15T03:13:03.415Z,934.23
2017-09-15T03:13:31.346Z,934.22
2017-09-15T03:13:59.363Z,934.2
2017-09-15T03:14:27.364Z,934.2
2017-09-15T03:14:55.396Z,934.22
2017-09-15T03:15:23.527Z,934.2
2017-09-15T03:15:51.522Z,934.2
2017-09-15T03:16:19.533Z,934.22
2017-09-15T03:16:47.630Z,934.22
2017-09-15T03:17:15.751Z,934.2
2017-09-15T03:17:43.657Z,934.19
2017-09-15T03:18:11.533Z,934.16
2017-09-15T03:18:39.433Z,934.16
2017-09-15T03:19:07.308Z,934.16
2017-09-15T03:19:35.204Z,934.14
2017-09-15T03:20:03.186Z,934.14
2017-09-15T03:20:31.186Z,934.11
2017-09-15T03:20:59.200Z,934.13
2017-09-15T03:21:27.247Z,934.12
2017-09-15T03:21:55.334Z,934.11
2017-09-15T03:22:23.249Z,934.11
2017-09-15T03:22:51.356Z,934.12
2017-09-15T03:23:19.325Z,934.11
2017-09-15T03:23:47.430Z,934.11
2017-09-15T03:24:15.467Z,934.13
2017-09-15T03:24:43.461Z,934.11
2017-09-15T03:25:11.561Z,934.06
2017-09-15T03:25:39.460Z,934.07
2017-09-15T03:26:07.364Z,934.04
2017-09-15T03:26:35.363Z,934.04
2017-09-15T03:27:03.348Z,934.07
2017-09-15T03:27:31.454Z,934.03
2017-09-15T03:27:59.442Z,934.01
2017-09-15T03:28:27.441Z,934.04
2017-09-15T03:28:55.452Z,934.04
2017-09-15T03:29:23.377Z,934.03
2017-09-15T03:29:51.281Z,934.04
2017-09-15T03:30:19.179Z,934.04
2017-09-15T03:30:46.893Z,934.02
2017-09-15T03:31:14.777Z,934.03
2017-09-15T03:31:42.782Z,934.04
2017-09-15T03:32:10.792Z,934.02
2017-09-15T03:32:38.789Z,934.03
2017-09-15T03:33:06.775Z,934.05
2017-09-15T03:33:34.759Z,934.06
2017-09-15T03:34:02.844Z,934.04
2017-09-15T03:34:30.638Z,934.04
2017-09-15T03:34:58.745Z,934.03
2017-09-15T03:35:26.670Z,934
2017-09-15T03:35:54.777Z,933.98
2017-09-15T03:36:22.717Z,934.01
2017-09-15T03:36:50.619Z,933.99
2017-09-15T03:37:18.732Z,933.97
2017-09-15T03:37:46.753Z,933.96
2017-09-15T03:38:14.750Z,933.95
2017-09-15T03:38:42.747Z,933.93
2017-09-15T03:39:10.854Z,933.96
2017-09-15T03:39:38.886Z,933.96
2017-09-15T03:40:06.765Z,933.96
2017-09-15T03:40:34.866Z,933.97
2017-09-15T03:41:02.953Z,933.98
2017-09-15T03:41:30.969Z,933.96
2017-09-15T03:41:58.876Z,933.96
2017-09-15T03:42:26.758Z,933.96
2017-09-15T03:42:54.865Z,933.92
2017-09-15T03:43:22.983Z,933.93
2017-09-15T03:43:50.922Z,933.94
2017-09-15T03:44:18.717Z,933.91
2017-09-15T03:44:46.395Z,933.93
2017-09-15T03:45:14.409Z,933.9
2017-09-15T03:45:42.373Z,933.92
2017-09-15T03:46:10.478Z,933.91
2017-09-15T03:46:38.605Z,933.95
2017-09-15T03:47:06.662Z,933.91
2017-09-15T03:47:34.658Z,933.91
2017-09-15T03:48:02.545Z,933.89
2017-09-15T03:48:30.484Z,933.92
2017-09-15T03:48:58.401Z,933.94
2017-09-15T03:49:26.297Z,933.93
2017-09-15T03:49:54.300Z,933.92
2017-09-15T03:50:22.314Z,933.91
2017-09-15T03:50:50.433Z,933.9
2017-09-15T03:51:18.467Z,933.89
2017-09-15T03:51:46.572Z,933.88
2017-09-15T03:52:14.560Z,933.85
2017-09-15T03:52:42.626Z,933.87
2017-09-15T03:53:10.512Z,933.84
2017-09-15T03:53:38.593Z,933.85
2017-09-15T03:54:06.683Z,933.87
2017-09-15T03:54:34.678Z,933.85
2017-09-15T03:55:02.782Z,933.86
2017-09-15T03:55:30.676Z,933.87
2017-09-15T03:55:58.699Z,933.91
2017-09-15T03:56:26.622Z,933.92
2017-09-15T03:56:54.629Z,933.89
2017-09-15T03:57:22.596Z,933.89
2017-09-15T03:57:50.623Z,933.91
2017-09-15T03:58:18.636Z,933.89
2017-09-15T03:58:46.643Z,933.86
2017-09-15T03:59:14.652Z,933.89
2017-09-15T03:59:42.635Z,933.84
2017-09-15T04:00:10.670Z,933.86
2017-09-15T04:00:38.599Z,933.86
2017-09-15T04:01:06.499Z,933.83
2017-09-15T04:01:34.504Z,933.87
2017-09-15T04:02:02.524Z,933.88
2017-09-15T04:02:30.533Z,933.82
2017-09-15T04:02:58.438Z,933.84
2017-09-15T04:03:26.364Z,933.83
2017-09-15T04:03:54.365Z,933.84
2017-09-15T04:04:22.484Z,933.84
2017-09-15T04:04:50.603Z,933.81
2017-09-15T04:05:18.628Z,933.8
2017-09-15T04:05:46.707Z,933.84
2017-09-15T04:06:14.715Z,933.84
2017-09-15T04:06:42.614Z,933.82
2017-09-15T04:07:10.685Z,933.81
2017-09-15T04:07:38.784Z,933.82
2017-09-15T04:08:06.704Z,933.82
2017-09-15T04:08:34.726Z,933.8
2017-09-15T04:09:02.636Z,933.8
2017-09-15T04:09:30.641Z,933.76
2017-09-15T04:09:58.571Z,933.79
2017-09-15T04:10:26.380Z,933.76
2017-09-15T04:10:54.470Z,933.75
2017-09-15T04:11:22.392Z,933.75
2017-09-15T04:11:50.375Z,933.74
2017-09-15T04:12:18.504Z,933.74
2017-09-15T04:12:46.596Z,933.73
2017-09-15T04:13:14.485Z,933.76
2017-09-15T04:13:42.488Z,933.74
2017-09-15T04:14:10.401Z,933.75
2017-09-15T04:14:38.277Z,933.78
2017-09-15T04:15:06.373Z,933.78
2017-09-15T04:15:34.376Z,933.79
2017-09-15T04:16:02.293Z,933.76
2017-09-15T04:16:30.356Z,933.77
2017-09-15T04:16:58.285Z,933.77
2017-09-15T04:17:26.077Z,933.77
2017-09-15T04:17:54.082Z,933.77
2017-09-15T04:18:22.112Z,933.76
2017-09-15T04:18:50.086Z,933.77
2017-09-15T04:19:18.008Z,933.8
2017-09-15T04:19:45.819Z,933.75
2017-09-15T04:20:13.679Z,933.77
2017-09-15T04:20:41.564Z,933.76
2017-09-15T04:21:09.632Z,933.76
2017-09-15T04:21:37.650Z,933.76
2017-09-15T04:22:05.751Z,933.72
2017-09-15T04:22:33.744Z,933.72
2017-09-15T04:23:01.659Z,933.72
2017-09-15T04:23:29.649Z,933.68
2017-09-15T04:23:57.647Z,933.7
2017-09-15T04:24:25.450Z,933.63
2017-09-15T04:24:53.145Z,933.68
2017-09-15T04:25:21.153Z,933.67
2017-09-15T04:25:49.276Z,933.69
2017-09-15T04:26:17.363Z,933.7
2017-09-15T04:26:45.350Z,933.71
2017-09-15T04:27:13.161Z,933.72
2017-09-15T04:27:41.227Z,933.71
2017-09-15T04:28:09.126Z,933.72
2017-09-15T04:28:37.133Z,933.73
2017-09-15T04:29:05.046Z,933.72
2017-09-15T04:29:32.942Z,933.68
2017-09-15T04:30:00.846Z,933.66
2017-09-15T04:30:28.757Z,933.64
2017-09-15T04:30:56.797Z,933.62
2017-09-15T04:31:24.707Z,933.65
2017-09-15T04:31:52.567Z,933.61
2017-09-15T04:32:20.561Z,933.63
2017-09-15T04:32:48.547Z,933.61
2017-09-15T04:33:16.451Z,933.64
2017-09-15T04:33:44.533Z,933.61
2017-09-15T04:34:12.534Z,933.61
2017-09-15T04:34:40.649Z,933.6
2017-09-15T04:35:08.626Z,933.6
2017-09-15T04:35:36.532Z,933.61
2017-09-15T04:36:04.620Z,933.58
2017-09-15T04:36:32.652Z,933.6
2017-09-15T04:37:00.558Z,933.55
2017-09-15T04:37:28.679Z,933.56
2017-09-15T04:37:56.824Z,933.55
2017-09-15T04:38:24.731Z,933.56
2017-09-15T04:38:52.646Z,933.56
2017-09-15T04:39:20.620Z,933.55
2017-09-15T04:39:48.637Z,933.55
2017-09-15T04:40:16.535Z,933.52
2017-09-15T04:40:44.311Z,933.54
2017-09-15T04:41:12.410Z,933.56
2017-09-15T04:41:40.492Z,933.57
2017-09-15T04:42:08.302Z,933.59
2017-09-15T04:42:36.507Z,933.55
2017-09-15T04:43:04.483Z,933.53
2017-09-15T04:43:32.484Z,933.51
2017-09-15T04:44:00.391Z,933.54
2017-09-15T04:44:28.288Z,933.57
2017-09-15T04:44:56.417Z,933.59
2017-09-15T04:45:24.536Z,933.59
2017-09-15T04:45:52.417Z,933.61
2017-09-15T04:46:20.543Z,933.58
2017-09-15T04:46:48.561Z,933.58
2017-09-15T04:47:16.377Z,933.61
2017-09-15T04:47:44.373Z,933.58
2017-09-15T04:48:12.369Z,933.62
2017-09-15T04:48:40.184Z,933.59
2017-09-15T04:49:08.083Z,933.57
2017-09-15T04:49:36.141Z,933.55
2017-09-15T04:50:04.122Z,933.55
2017-09-15T04:50:31.903Z,933.54
2017-09-15T04:50:59.886Z,933.55
2017-09-15T04:51:27.858Z,933.56
2017-09-15T04:51:55.975Z,933.56
2017-09-15T04:52:23.985Z,933.55
2017-09-15T04:52:51.885Z,933.55
2017-09-15T04:53:19.792Z,933.57
2017-09-15T04:53:47.917Z,933.54
2017-09-15T04:54:15.776Z,933.56
2017-09-15T04:54:43.759Z,933.55
2017-09-15T04:55:11.756Z,933.51
2017-09-15T04:55:39.900Z,933.52
2017-09-15T04:56:07.833Z,933.48
2017-09-15T04:56:35.851Z,933.52
2017-09-15T04:57:03.931Z,933.51
2017-09-15T04:57:31.946Z,933.51
2017-09-15T04:58:00.027Z,933.51
2017-09-15T04:58:28.124Z,933.52
2017-09-15T04:58:56.205Z,933.52
2017-09-15T04:59:24.107Z,933.49
2017-09-15T04:59:51.986Z,933.48
2017-09-15T05:00:20.127Z,933.49
2017-09-15T05:00:47.831Z,933.48
2017-09-15T05:01:15.642Z,933.53
2017-09-15T05:01:43.531Z,933.5
2017-09-15T05:02:11.434Z,933.51
2017-09-15T05:02:39.232Z,933.51
2017-09-15T05:03:07.150Z,933.51
2017-09-15T05:03:35.147Z,933.52
2017-09-15T05:04:03.231Z,933.52
2017-09-15T05:04:31.248Z,933.52
2017-09-15T05:04:59.344Z,933.52
2017-09-15T05:05:27.353Z,933.53
2017-09-15T05:05:55.378Z,933.49
2017-09-15T05:06:23.381Z,933.52
2017-09-15T05:06:51.404Z,933.52
2017-09-15T05:07:19.416Z,933.52
2017-09-15T05:07:47.594Z,933.49
2017-09-15T05:08:15.628Z,933.51
2017-09-15T05:08:43.654Z,933.52
2017-09-15T05:09:11.547Z,933.53
2017-09-15T05:09:39.340Z,933.47
2017-09-15T05:10:07.175Z,933.49
2017-09-15T05:10:35.182Z,933.5
2017-09-15T05:11:03.305Z,933.56
2017-09-15T05:11:31.416Z,933.54
2017-09-15T05:11:59.428Z,933.53
2017-09-15T05:12:27.551Z,933.55
2017-09-15T05:12:55.672Z,933.54
2017-09-15T05:13:23.571Z,933.55
2017-09-15T05:13:51.485Z,933.57
2017-09-15T05:14:19.393Z,933.56
2017-09-15T05:14:47.543Z,933.56
2017-09-15T05:15:15.679Z,933.55
2017-09-15T05:15:43.782Z,933.58
2017-09-15T05:16:11.784Z,933.6
2017-09-15T05:16:39.782Z,933.61
2017-09-15T05:17:07.728Z,933.59
2017-09-15T05:17:35.856Z,933.58
2017-09-15T05:18:03.973Z,933.62
2017-09-15T05:18:31.974Z,933.65
2017-09-15T05:18:59.981Z,933.71
2017-09-15T05:19:28.008Z,933.71
2017-09-15T05:19:55.710Z,933.72
2017-09-15T05:20:23.720Z,933.71
2017-09-15T05:20:51.647Z,933.69
2017-09-15T05:21:19.450Z,933.69
2017-09-15T05:21:47.513Z,933.68
2017-09-15T05:22:15.460Z,933.69
2017-09-15T05:22:43.454Z,933.65
2017-09-15T05:23:11.584Z,933.68
2017-09-15T05:23:39.729Z,933.64
2017-09-15T05:24:07.613Z,933.67
2017-09-15T05:24:35.590Z,933.66
2017-09-15T05:25:03.698Z,933.62
2017-09-15T05:25:31.675Z,933.61
2017-09-15T05:25:59.590Z,933.67
2017-09-15T05:26:27.566Z,933.64
2017-09-15T05:26:55.576Z,933.65
2017-09-15T05:27:23.368Z,933.66
2017-09-15T05:27:51.487Z,933.67
2017-09-15T05:28:19.659Z,933.68
2017-09-15T05:28:47.649Z,933.7
2017-09-15T05:29:15.641Z,933.7
2017-09-15T05:29:43.577Z,933.69
2017-09-15T05:30:11.492Z,933.69
2017-09-15T05:30:39.607Z,933.67
2017-09-15T05:31:07.714Z,933.66
2017-09-15T05:31:35.713Z,933.65
2017-09-15T05:32:03.717Z,933.68
2017-09-15T05:32:31.726Z,933.66
2017-09-15T05:32:59.923Z,933.63
2017-09-15T05:33:27.945Z,933.64
2017-09-15T05:33:55.973Z,933.64
2017-09-15T05:34:24.116Z,933.65
2017-09-15T05:34:52.135Z,933.66
2017-09-15T05:35:20.210Z,933.68
2017-09-15T05:35:48.190Z,933.65
2017-09-15T05:36:16.216Z,933.69
2017-09-15T05:36:44.095Z,933.68
2017-09-15T05:37:12.102Z,933.66
2017-09-15T05:37:39.970Z,933.67
2017-09-15T05:38:08.046Z,933.69
2017-09-15T05:38:36.143Z,933.7
2017-09-15T05:39:04.142Z,933.67
2017-09-15T05:39:32.040Z,933.68
2017-09-15T05:39:59.726Z,933.65
2017-09-15T05:40:27.651Z,933.69
2017-09-15T05:40:55.578Z,933.7
2017-09-15T05:41:23.713Z,933.69
2017-09-15T05:41:51.693Z,933.7
2017-09-15T05:42:19.804Z,933.68
2017-09-15T05:42:47.800Z,933.73
2017-09-15T05:43:15.957Z,933.71
2017-09-15T05:43:44.088Z,933.72
2017-09-15T05:44:12.015Z,933.73
2017-09-15T05:44:40.002Z,933.71
2017-09-15T05:45:07.777Z,933.72
2017-09-15T05:45:35.774Z,933.74
2017-09-15T05:46:03.798Z,933.75
2017-09-15T05:46:31.893Z,933.71
2017-09-15T05:46:59.807Z,933.72
2017-09-15T05:47:27.901Z,933.73
2017-09-15T05:47:55.909Z,933.75
2017-09-15T05:48:24.011Z,933.74
2017-09-15T05:48:52.005Z,933.75
2017-09-15T05:49:20.137Z,933.73
2017-09-15T05:49:48.163Z,933.75
2017-09-15T05:50:16.081Z,933.76